createdAt,value
2023-01-03T00:00:53.913Z,8.83
2023-01-03T00:03:20.671Z,8.93
2023-01-03T00:05:48.353Z,8.95
2023-01-03T00:08:15.656Z,8.93
2023-01-03T00:10:42.300Z,8.92
2023-01-03T00:13:08.772Z,8.96
2023-01-03T00:15:36.265Z,8.93
2023-01-03T00:18:03.454Z,8.88
2023-01-03T00:20:30.090Z,8.88
2023-01-03T00:22:56.711Z,8.91
2023-01-03T00:25:23.459Z,8.81
2023-01-03T00:27:50.085Z,8.76
2023-01-03T00:30:16.854Z,8.80
2023-01-03T00:32:43.374Z,8.78
2023-01-03T00:35:10.021Z,8.81
2023-01-03T00:37:36.544Z,8.77
2023-01-03T00:40:04.359Z,8.72
2023-01-03T00:42:51.025Z,8.73
2023-01-03T00:45:20.080Z,8.82
2023-01-03T00:47:47.663Z,8.75
2023-01-03T00:50:14.116Z,8.74
2023-01-03T00:52:40.636Z,8.74
2023-01-03T00:55:07.646Z,8.79
2023-01-03T00:57:34.107Z,8.76
2023-01-03T01:00:00.714Z,8.73
2023-01-03T01:02:27.542Z,8.74
2023-01-03T01:04:54.341Z,8.77
2023-01-03T01:07:20.976Z,8.76
2023-01-03T01:09:47.617Z,8.81
2023-01-03T01:12:14.075Z,8.87
2023-01-03T01:14:40.720Z,8.90
2023-01-03T01:17:08.519Z,8.95
2023-01-03T01:19:39.059Z,8.92
2023-01-03T01:22:06.638Z,8.92
2023-01-03T01:24:33.633Z,8.98
2023-01-03T01:27:00.528Z,8.95
2023-01-03T01:29:27.634Z,8.97
2023-01-03T01:31:54.275Z,8.96
2023-01-03T01:34:20.884Z,9.03
2023-01-03T01:36:48.083Z,9.03
2023-01-03T01:39:19.087Z,9.03
2023-01-03T01:42:05.479Z,9.07
2023-01-03T01:44:44.812Z,9.11
2023-01-03T01:47:20.286Z,9.17
2023-01-03T01:49:49.457Z,9.32
2023-01-03T01:52:17.070Z,9.26
2023-01-03T01:54:44.022Z,9.21
2023-01-03T01:57:13.034Z,9.22
2023-01-03T01:59:39.544Z,9.15
2023-01-03T02:02:06.463Z,9.16
2023-01-03T02:04:35.745Z,9.20
2023-01-03T02:07:03.195Z,9.22
2023-01-03T02:09:32.406Z,9.29
2023-01-03T02:12:28.564Z,9.25
2023-01-03T02:15:07.984Z,9.26
2023-01-03T02:17:43.504Z,9.23
2023-01-03T02:20:19.071Z,9.29
2023-01-03T02:23:13.338Z,9.33
2023-01-03T02:26:13.604Z,9.30
2023-01-03T02:28:50.343Z,9.30
2023-01-03T02:31:25.480Z,9.39
2023-01-03T02:34:17.600Z,9.39
2023-01-03T02:37:00.927Z,9.37
2023-01-03T02:39:40.897Z,9.35
2023-01-03T02:42:47.723Z,9.40
2023-01-03T02:45:19.052Z,9.37
2023-01-03T02:48:01.481Z,9.38
2023-01-03T02:50:31.066Z,9.33
2023-01-03T02:53:02.498Z,9.25
2023-01-03T02:55:30.982Z,9.25
2023-01-03T02:58:06.907Z,9.26
2023-01-03T03:00:34.189Z,9.14
2023-01-03T03:03:06.784Z,9.15
2023-01-03T03:05:39.384Z,9.11
2023-01-03T03:08:07.028Z,9.02
2023-01-03T03:10:52.579Z,8.94
2023-01-03T03:13:45.986Z,8.88
2023-01-03T03:16:20.143Z,8.87
2023-01-03T03:19:00.654Z,8.86
2023-01-03T03:21:51.548Z,8.91
2023-01-03T03:24:40.558Z,8.85
2023-01-03T03:27:28.132Z,8.82
2023-01-03T03:29:56.220Z,8.76
2023-01-03T03:32:24.817Z,8.65
2023-01-03T03:34:53.333Z,8.57
2023-01-03T03:37:22.366Z,8.55
2023-01-03T03:40:07.786Z,8.49
2023-01-03T03:42:57.349Z,8.52
2023-01-03T03:45:30.393Z,8.48
2023-01-03T03:48:03.706Z,8.45
2023-01-03T03:50:46.884Z,8.45
2023-01-03T03:53:14.856Z,8.27
2023-01-03T03:55:45.055Z,8.25
2023-01-03T03:58:16.287Z,8.24
2023-01-03T04:00:43.517Z,8.25
2023-01-03T04:03:10.915Z,8.25
2023-01-03T04:05:40.482Z,8.20
2023-01-03T04:08:07.559Z,8.26
2023-01-03T04:10:38.039Z,8.18
2023-01-03T04:13:05.228Z,8.18
2023-01-03T04:15:31.819Z,8.22
2023-01-03T04:17:58.437Z,8.27
2023-01-03T04:20:25.458Z,8.21
2023-01-03T04:22:51.909Z,8.24
2023-01-03T04:25:18.835Z,8.23
2023-01-03T04:27:45.786Z,8.31
2023-01-03T04:30:13.216Z,8.27
2023-01-03T04:32:39.998Z,8.36
2023-01-03T04:35:07.078Z,8.33
2023-01-03T04:37:33.624Z,8.32
2023-01-03T04:40:00.182Z,8.26
2023-01-03T04:42:45.758Z,8.28
2023-01-03T04:45:12.427Z,8.25
2023-01-03T04:47:39.087Z,8.29
2023-01-03T04:50:06.211Z,8.28
2023-01-03T04:52:32.733Z,8.30
2023-01-03T04:54:59.444Z,8.33
2023-01-03T04:57:26.098Z,8.27
2023-01-03T04:59:52.628Z,8.35
2023-01-03T05:02:21.803Z,8.31
2023-01-03T05:04:48.520Z,8.33
2023-01-03T05:07:15.054Z,8.21
2023-01-03T05:09:41.585Z,8.20
2023-01-03T05:12:08.341Z,8.12
2023-01-03T05:14:35.765Z,8.09
2023-01-03T05:17:02.632Z,8.11
2023-01-03T05:19:29.407Z,8.19
2023-01-03T05:22:14.695Z,8.17
2023-01-03T05:24:59.865Z,8.06
2023-01-03T05:27:26.713Z,7.96
2023-01-03T05:29:53.669Z,7.79
2023-01-03T05:32:20.963Z,7.73
2023-01-03T05:34:47.530Z,7.65
2023-01-03T05:37:14.072Z,7.50
2023-01-03T05:39:40.710Z,7.44
2023-01-03T05:42:07.231Z,7.34
2023-01-03T05:44:34.826Z,7.28
2023-01-03T05:47:03.800Z,7.19
2023-01-03T05:49:30.372Z,7.15
2023-01-03T05:51:56.894Z,7.03
2023-01-03T05:54:23.489Z,7.05
2023-01-03T05:56:51.174Z,6.96
2023-01-03T05:59:19.083Z,6.88
2023-01-03T06:01:45.762Z,6.89
2023-01-03T06:04:12.561Z,6.80
2023-01-03T06:06:39.112Z,6.81
2023-01-03T06:09:06.070Z,6.71
2023-01-03T06:11:32.522Z,6.62
2023-01-03T06:13:59.053Z,6.59
2023-01-03T06:16:44.487Z,6.53
2023-01-03T06:19:11.258Z,6.51
2023-01-03T06:21:38.204Z,6.44
2023-01-03T06:24:05.482Z,6.43
2023-01-03T06:26:32.196Z,6.41
2023-01-03T06:28:59.253Z,6.47
2023-01-03T06:31:26.127Z,6.47
2023-01-03T06:33:52.655Z,6.53
2023-01-03T06:36:21.278Z,6.52
2023-01-03T06:38:47.986Z,6.50
2023-01-03T06:41:15.518Z,6.48
2023-01-03T06:43:42.262Z,6.48
2023-01-03T06:46:28.693Z,6.50
2023-01-03T06:49:13.930Z,6.44
2023-01-03T06:51:59.056Z,6.45
2023-01-03T06:54:27.606Z,6.50
2023-01-03T06:56:54.421Z,6.49
2023-01-03T06:59:21.899Z,6.47
2023-01-03T07:01:49.406Z,6.47
2023-01-03T07:04:16.167Z,6.49
2023-01-03T07:06:43.490Z,6.51
2023-01-03T07:09:11.163Z,6.54
2023-01-03T07:11:39.017Z,6.55
2023-01-03T07:14:06.917Z,6.59
2023-01-03T07:16:38.823Z,6.59
2023-01-03T07:19:06.528Z,6.55
2023-01-03T07:21:34.599Z,6.67
2023-01-03T07:24:02.439Z,6.66
2023-01-03T07:26:30.917Z,6.62
2023-01-03T07:28:58.266Z,6.64
2023-01-03T07:31:25.043Z,6.62
2023-01-03T07:33:53.183Z,6.67
2023-01-03T07:36:22.986Z,6.65
2023-01-03T07:38:49.638Z,6.68
2023-01-03T07:41:16.793Z,6.74
2023-01-03T07:43:45.961Z,6.71
2023-01-03T07:46:17.627Z,6.72
2023-01-03T07:48:46.099Z,6.72
2023-01-03T07:51:14.972Z,6.83
2023-01-03T07:53:41.945Z,6.86
2023-01-03T07:56:13.376Z,6.95
2023-01-03T07:58:44.300Z,7.04
2023-01-03T08:01:22.505Z,6.98
2023-01-03T08:03:49.493Z,7.05
2023-01-03T08:06:21.209Z,7.02
2023-01-03T08:09:07.911Z,7.05
2023-01-03T08:11:53.046Z,7.05
2023-01-03T08:14:25.652Z,7.10
2023-01-03T08:16:53.905Z,7.10
2023-01-03T08:19:20.563Z,7.08
2023-01-03T08:21:47.122Z,7.13
2023-01-03T08:24:16.978Z,7.21
2023-01-03T08:26:47.572Z,7.27
2023-01-03T08:29:14.464Z,7.45
2023-01-03T08:31:45.184Z,7.59
2023-01-03T08:34:18.563Z,7.66
2023-01-03T08:36:50.821Z,7.85
2023-01-03T08:39:20.544Z,7.79
2023-01-03T08:41:55.525Z,7.77
2023-01-03T08:44:22.276Z,7.79
2023-01-03T08:46:51.824Z,7.72
2023-01-03T08:49:21.073Z,7.65
2023-01-03T08:51:47.541Z,7.61
2023-01-03T08:54:14.277Z,7.60
2023-01-03T08:56:42.177Z,7.63
2023-01-03T08:59:08.748Z,7.64
2023-01-03T09:01:35.655Z,7.68
2023-01-03T09:04:02.531Z,7.71
2023-01-03T09:06:29.094Z,7.75
2023-01-03T09:08:55.669Z,7.85
2023-01-03T09:11:22.349Z,7.89
2023-01-03T09:13:48.849Z,7.90
2023-01-03T09:16:16.957Z,8.15
2023-01-03T09:18:43.858Z,8.56
2023-01-03T09:21:10.533Z,10.19
2023-01-03T09:23:37.572Z,11.11
2023-01-03T09:26:05.456Z,11.81
2023-01-03T09:28:32.109Z,11.66
2023-01-03T09:30:58.877Z,10.73
2023-01-03T09:33:25.639Z,10.14
2023-01-03T09:35:54.654Z,10.24
2023-01-03T09:38:22.427Z,10.66
2023-01-03T09:40:57.646Z,10.85
2023-01-03T09:43:33.924Z,12.52
2023-01-03T09:46:02.073Z,13.55
2023-01-03T09:48:36.622Z,15.73
2023-01-03T09:51:25.898Z,15.62
2023-01-03T09:54:11.038Z,14.71
2023-01-03T09:56:56.671Z,14.43
2023-01-03T09:59:41.725Z,13.87
2023-01-03T10:02:52.000Z,14.20
2023-01-03T10:05:53.944Z,16.12
2023-01-03T10:08:39.938Z,16.99
2023-01-03T10:11:09.737Z,17.80
2023-01-03T10:13:48.676Z,14.39
2023-01-03T10:16:35.745Z,12.07
2023-01-03T10:19:27.178Z,12.11
2023-01-03T10:22:04.660Z,11.95
2023-01-03T10:24:34.402Z,10.84
2023-01-03T10:27:08.520Z,9.95
2023-01-03T10:29:35.127Z,9.55
2023-01-03T10:32:08.137Z,9.38
2023-01-03T10:34:34.690Z,9.35
2023-01-03T10:37:01.885Z,11.22
2023-01-03T10:39:31.600Z,14.65
2023-01-03T10:41:59.973Z,15.23
2023-01-03T10:44:31.642Z,13.31
2023-01-03T10:47:15.059Z,12.83
2023-01-03T10:49:44.825Z,12.23
2023-01-03T10:52:19.962Z,11.52
2023-01-03T10:54:49.611Z,10.69
2023-01-03T10:57:43.785Z,9.68
2023-01-03T11:00:31.805Z,10.45
2023-01-03T11:03:27.870Z,12.02
2023-01-03T11:06:00.196Z,13.03
2023-01-03T11:08:47.627Z,12.78
2023-01-03T11:11:32.785Z,11.83
2023-01-03T11:14:17.397Z,9.73
2023-01-03T11:16:44.268Z,8.79
2023-01-03T11:19:16.480Z,8.58
2023-01-03T11:21:50.062Z,8.49
2023-01-03T11:24:30.249Z,8.36
2023-01-03T11:27:08.718Z,8.39
2023-01-03T11:29:51.433Z,8.42
2023-01-03T11:32:24.996Z,8.47
2023-01-03T11:35:24.005Z,8.38
2023-01-03T11:38:11.702Z,8.32
2023-01-03T11:41:00.099Z,8.06
2023-01-03T11:43:42.099Z,8.07
2023-01-03T11:46:40.019Z,8.04
2023-01-03T11:49:24.551Z,7.99
2023-01-03T11:52:20.077Z,7.50
2023-01-03T11:55:23.878Z,7.35
2023-01-03T11:57:56.951Z,7.38
2023-01-03T12:00:34.914Z,7.35
2023-01-03T12:03:02.591Z,7.31
2023-01-03T12:05:49.564Z,7.28
2023-01-03T12:08:30.138Z,7.37
2023-01-03T12:11:15.329Z,7.22
2023-01-03T12:13:49.192Z,7.15
2023-01-03T12:16:26.483Z,7.14
2023-01-03T12:18:59.210Z,7.10
2023-01-03T12:21:41.039Z,7.25
2023-01-03T12:24:33.554Z,7.05
2023-01-03T12:27:13.418Z,7.01
2023-01-03T12:29:46.049Z,7.00
2023-01-03T12:32:17.187Z,6.95
2023-01-03T12:34:50.653Z,6.85
2023-01-03T12:37:23.869Z,6.84
2023-01-03T12:40:01.902Z,6.90
2023-01-03T12:42:36.415Z,6.89
2023-01-03T12:45:14.975Z,6.73
2023-01-03T12:47:50.050Z,6.81
2023-01-03T12:50:30.305Z,6.74
2023-01-03T12:53:34.541Z,6.59
2023-01-03T12:56:38.459Z,6.59
2023-01-03T12:59:29.282Z,6.57
2023-01-03T13:02:07.186Z,6.54
2023-01-03T13:04:35.561Z,6.49
2023-01-03T13:07:02.064Z,6.31
2023-01-03T13:09:57.433Z,6.32
2023-01-03T13:12:29.800Z,6.30
2023-01-03T13:15:06.038Z,6.41
2023-01-03T13:17:43.134Z,6.34
2023-01-03T13:20:33.805Z,6.43
2023-01-03T13:23:01.583Z,6.28
2023-01-03T13:25:34.393Z,6.38
2023-01-03T13:28:05.760Z,6.43
2023-01-03T13:30:34.666Z,6.64
2023-01-03T13:33:24.278Z,6.50
2023-01-03T13:35:59.932Z,6.49
2023-01-03T13:38:32.150Z,6.27
2023-01-03T13:41:18.213Z,6.21
2023-01-03T13:43:49.024Z,6.08
2023-01-03T13:46:29.256Z,5.93
2023-01-03T13:49:04.139Z,6.04
2023-01-03T13:51:55.209Z,5.83
2023-01-03T13:54:21.700Z,5.81
2023-01-03T13:56:48.209Z,5.77
2023-01-03T13:59:14.790Z,5.76
2023-01-03T14:01:47.886Z,5.74
2023-01-03T14:04:33.700Z,5.65
2023-01-03T14:07:37.258Z,5.65
2023-01-03T14:10:24.491Z,5.56
2023-01-03T14:13:28.710Z,5.52
2023-01-03T14:16:16.301Z,5.28
2023-01-03T14:18:49.601Z,5.34
2023-01-03T14:21:41.384Z,5.25
2023-01-03T14:24:16.152Z,5.19
2023-01-03T14:26:42.786Z,5.21
2023-01-03T14:29:19.010Z,5.10
2023-01-03T14:31:48.223Z,4.95
2023-01-03T14:34:35.112Z,5.00
2023-01-03T14:37:22.270Z,4.96
2023-01-03T14:39:55.632Z,5.03
2023-01-03T14:42:22.789Z,5.04
2023-01-03T14:45:16.555Z,4.88
2023-01-03T14:47:43.938Z,4.76
2023-01-03T14:50:21.556Z,4.70
2023-01-03T14:52:52.312Z,4.63
2023-01-03T14:55:21.092Z,4.59
2023-01-03T14:57:49.110Z,4.54
2023-01-03T15:00:28.275Z,4.52
2023-01-03T15:02:59.331Z,4.44
2023-01-03T15:05:35.088Z,4.33
2023-01-03T15:08:22.330Z,4.33
2023-01-03T15:10:54.431Z,4.29
2023-01-03T15:13:28.851Z,4.24
2023-01-03T15:15:57.663Z,4.23
2023-01-03T15:18:25.936Z,4.19
2023-01-03T15:20:54.489Z,4.22
2023-01-03T15:23:39.599Z,4.19
2023-01-03T15:26:39.643Z,4.18
2023-01-03T15:29:06.171Z,4.11
2023-01-03T15:31:38.219Z,4.16
2023-01-03T15:34:29.327Z,4.13
2023-01-03T15:37:03.003Z,4.09
2023-01-03T15:39:41.842Z,4.00
2023-01-03T15:42:50.113Z,3.96
2023-01-03T15:45:22.699Z,3.92
2023-01-03T15:47:50.108Z,3.79
2023-01-03T15:50:19.015Z,3.70
2023-01-03T15:52:46.862Z,3.59
2023-01-03T15:55:14.479Z,3.48
2023-01-03T15:57:41.327Z,3.41
2023-01-03T16:00:10.980Z,3.35
2023-01-03T16:02:37.710Z,3.42
2023-01-03T16:05:04.605Z,3.34
2023-01-03T16:07:31.485Z,3.27
2023-01-03T16:09:58.025Z,3.25
2023-01-03T16:12:33.874Z,3.26
2023-01-03T16:15:00.764Z,3.27
2023-01-03T16:17:28.597Z,3.32
2023-01-03T16:19:56.659Z,3.27
2023-01-03T16:22:34.557Z,3.15
2023-01-03T16:25:02.345Z,3.14
2023-01-03T16:27:29.050Z,3.13
2023-01-03T16:29:55.653Z,3.06
2023-01-03T16:32:26.025Z,3.09
2023-01-03T16:34:52.774Z,3.12
2023-01-03T16:37:19.827Z,3.13
2023-01-03T16:39:48.689Z,3.14
2023-01-03T16:42:15.586Z,3.14
2023-01-03T16:44:49.259Z,3.11
2023-01-03T16:47:20.163Z,3.15
2023-01-03T16:49:50.597Z,3.13
2023-01-03T16:52:23.056Z,3.24
2023-01-03T16:54:50.161Z,3.17
2023-01-03T16:57:21.049Z,3.17
2023-01-03T16:59:48.571Z,3.23
2023-01-03T17:02:15.666Z,3.19
2023-01-03T17:04:42.304Z,3.15
2023-01-03T17:07:23.678Z,3.23
2023-01-03T17:09:51.374Z,3.17
2023-01-03T17:12:21.254Z,3.18
2023-01-03T17:14:52.072Z,3.06
2023-01-03T17:17:21.513Z,3.05
2023-01-03T17:20:06.013Z,3.04
2023-01-03T17:22:33.326Z,3.03
2023-01-03T17:24:59.903Z,2.96
2023-01-03T17:27:31.762Z,2.92
2023-01-03T17:30:02.652Z,2.93
2023-01-03T17:32:30.046Z,2.82
2023-01-03T17:34:56.597Z,2.80
2023-01-03T17:37:23.489Z,2.80
2023-01-03T17:39:55.120Z,2.80
2023-01-03T17:42:22.060Z,2.74
2023-01-03T17:45:09.271Z,2.75
2023-01-03T17:47:58.572Z,2.81
2023-01-03T17:50:25.764Z,2.80
2023-01-03T17:52:55.881Z,2.78
2023-01-03T17:55:25.134Z,2.81
2023-01-03T17:57:51.985Z,2.87
2023-01-03T18:00:21.647Z,2.89
2023-01-03T18:02:48.667Z,2.93
2023-01-03T18:05:21.507Z,2.87
2023-01-03T18:07:53.018Z,2.91
2023-01-03T18:10:26.815Z,2.91
2023-01-03T18:12:53.597Z,2.91
2023-01-03T18:15:21.799Z,2.95
2023-01-03T18:17:48.947Z,3.01
2023-01-03T18:20:17.718Z,3.04
2023-01-03T18:22:45.472Z,3.17
2023-01-03T18:25:22.045Z,3.19
2023-01-03T18:27:54.304Z,3.09
2023-01-03T18:30:21.049Z,3.19
2023-01-03T18:32:47.798Z,3.08
2023-01-03T18:35:20.764Z,3.13
2023-01-03T18:37:53.915Z,3.20
2023-01-03T18:40:23.320Z,3.19
2023-01-03T18:43:08.190Z,3.23
2023-01-03T18:45:35.353Z,3.21
2023-01-03T18:48:02.027Z,3.17
2023-01-03T18:50:28.814Z,3.23
2023-01-03T18:52:56.019Z,3.22
2023-01-03T18:55:25.360Z,3.25
2023-01-03T18:57:52.476Z,3.15
2023-01-03T19:00:21.919Z,3.15
2023-01-03T19:02:49.055Z,3.25
2023-01-03T19:05:15.975Z,3.18
2023-01-03T19:07:43.946Z,3.16
2023-01-03T19:10:22.849Z,3.19
2023-01-03T19:12:51.466Z,3.20
2023-01-03T19:15:24.467Z,3.13
2023-01-03T19:17:51.460Z,3.15
2023-01-03T19:20:23.234Z,3.19
2023-01-03T19:22:53.717Z,3.19
2023-01-03T19:25:24.853Z,3.18
2023-01-03T19:27:53.443Z,3.15
2023-01-03T19:30:24.453Z,3.06
2023-01-03T19:32:53.660Z,3.08
2023-01-03T19:35:21.922Z,3.13
2023-01-03T19:37:48.575Z,3.12
2023-01-03T19:40:17.729Z,3.07
2023-01-03T19:42:50.625Z,3.14
2023-01-03T19:45:43.070Z,3.13
2023-01-03T19:48:19.153Z,3.14
2023-01-03T19:50:46.069Z,3.01
2023-01-03T19:53:12.687Z,2.99
2023-01-03T19:55:41.750Z,2.99
2023-01-03T19:58:29.548Z,2.85
2023-01-03T20:00:56.636Z,2.84
2023-01-03T20:03:36.298Z,2.71
2023-01-03T20:06:03.134Z,2.69
2023-01-03T20:08:29.738Z,2.63
2023-01-03T20:10:56.637Z,2.66
2023-01-03T20:13:25.837Z,2.71
2023-01-03T20:15:55.651Z,2.71
2023-01-03T20:18:30.885Z,2.76
2023-01-03T20:21:05.532Z,2.79
2023-01-03T20:23:35.369Z,2.76
2023-01-03T20:26:02.448Z,2.73
2023-01-03T20:28:29.618Z,2.80
2023-01-03T20:30:59.987Z,2.73
2023-01-03T20:33:27.842Z,2.75
2023-01-03T20:36:20.071Z,2.71
2023-01-03T20:38:45.661Z,2.65
2023-01-03T20:41:14.502Z,2.75
2023-01-03T20:43:44.834Z,2.77
2023-01-03T20:46:20.772Z,2.73
2023-01-03T20:48:56.029Z,2.69
2023-01-03T20:51:24.461Z,2.67
2023-01-03T20:53:54.665Z,2.68
2023-01-03T20:56:22.361Z,2.69
2023-01-03T20:58:49.141Z,2.70
2023-01-03T21:01:15.781Z,2.75
2023-01-03T21:03:42.401Z,2.78
2023-01-03T21:06:23.626Z,2.84
2023-01-03T21:08:56.667Z,2.87
2023-01-03T21:11:27.032Z,2.88
2023-01-03T21:13:54.702Z,2.91
2023-01-03T21:16:29.557Z,2.92
2023-01-03T21:18:56.170Z,2.95
2023-01-03T21:21:23.750Z,2.96
2023-01-03T21:23:50.496Z,2.96
2023-01-03T21:26:17.036Z,2.95
2023-01-03T21:28:43.599Z,3.00
2023-01-03T21:31:17.242Z,3.00
2023-01-03T21:33:43.974Z,3.05
2023-01-03T21:36:21.118Z,3.04
2023-01-03T21:38:49.777Z,3.12
2023-01-03T21:41:20.166Z,3.00
2023-01-03T21:43:46.874Z,3.08
2023-01-03T21:46:21.177Z,3.09
2023-01-03T21:48:47.979Z,3.04
2023-01-03T21:51:20.712Z,3.05
2023-01-03T21:53:53.966Z,3.08
2023-01-03T21:56:23.270Z,3.04
2023-01-03T21:58:50.320Z,3.07
2023-01-03T22:01:23.969Z,3.00
2023-01-03T22:04:10.227Z,3.00
2023-01-03T22:06:37.482Z,3.08
2023-01-03T22:09:06.133Z,3.03
2023-01-03T22:11:32.751Z,3.03
2023-01-03T22:14:00.301Z,2.98
2023-01-03T22:16:27.140Z,3.07
2023-01-03T22:18:53.749Z,3.08
2023-01-03T22:21:21.276Z,3.01
2023-01-03T22:23:47.809Z,3.01
2023-01-03T22:26:15.508Z,3.00
2023-01-03T22:28:44.068Z,2.94
2023-01-03T22:31:16.423Z,2.98
2023-01-03T22:33:44.562Z,3.03
2023-01-03T22:36:11.270Z,3.00
2023-01-03T22:38:38.137Z,3.00
2023-01-03T22:41:14.834Z,2.96
2023-01-03T22:43:41.771Z,2.94
2023-01-03T22:46:10.095Z,2.93
2023-01-03T22:48:37.093Z,2.90
2023-01-03T22:51:05.529Z,2.93
2023-01-03T22:53:39.750Z,2.94
2023-01-03T22:56:08.045Z,2.88
2023-01-03T22:58:35.546Z,2.88
2023-01-03T23:01:16.517Z,2.83
2023-01-03T23:03:44.586Z,2.75
2023-01-03T23:06:15.597Z,2.67
2023-01-03T23:08:42.279Z,2.72
2023-01-03T23:11:33.840Z,2.79
2023-01-03T23:14:06.764Z,2.75
2023-01-03T23:16:33.392Z,2.69
2023-01-03T23:19:03.975Z,2.73
2023-01-03T23:21:30.591Z,2.62
2023-01-03T23:23:57.090Z,2.65
2023-01-03T23:26:23.827Z,2.68
2023-01-03T23:28:57.553Z,2.81
2023-01-03T23:31:26.344Z,2.67
2023-01-03T23:33:57.366Z,2.59
2023-01-03T23:36:24.093Z,2.45
2023-01-03T23:38:50.628Z,2.43
2023-01-03T23:41:17.822Z,2.39
2023-01-03T23:43:44.267Z,2.45
2023-01-03T23:46:18.816Z,2.53
2023-01-03T23:48:45.488Z,2.42
2023-01-03T23:51:12.618Z,2.30
2023-01-03T23:53:41.714Z,2.34
2023-01-03T23:56:11.384Z,2.26
2023-01-03T23:58:37.875Z,2.25
